Time;durP1;ratioP1;P1;durP2;ratioP2;P2;SDS_P1;SDS_P2;PMS_P1;PMS_P2;Temp;Humidity;BMP_temperature;BMP_pressure;BME280_temperature;BME280_humidity;BME280_pressure;Samples;Min_cycle;Max_cycle;Signal;HPM_P1;HPM_P2
2022/09/06 00:00:39;;;;;;;1999.90;999.90;;;18.80;99.90;;;;;;5032241;28;20232;-68
2022/09/06 00:03:08;;;;;;;1999.90;999.90;;;18.70;99.90;;;;;;5032703;28;20202;-68
2022/09/06 00:05:36;;;;;;;1999.90;999.90;;;18.70;99.90;;;;;;5032237;28;20207;-68
2022/09/06 00:08:05;;;;;;;1999.90;999.90;;;18.70;99.90;;;;;;5032621;28;20200;-68
2022/09/06 00:10:33;;;;;;;1999.90;999.90;;;18.70;99.90;;;;;;5032569;28;20203;-69
2022/09/06 00:13:02;;;;;;;1999.90;999.90;;;18.80;99.90;;;;;;5032257;28;20207;-69
2022/09/06 00:15:30;;;;;;;1999.90;999.90;;;18.50;99.90;;;;;;5032582;28;20268;-69
2022/09/06 00:17:59;;;;;;;1999.90;999.90;;;18.40;99.90;;;;;;5032270;28;20714;-69
2022/09/06 00:20:26;;;;;;;1999.90;999.90;;;18.40;99.90;;;;;;5035492;28;20207;-69
2022/09/06 00:22:58;;;;;;;1999.90;999.90;;;18.50;99.90;;;;;;5039293;28;20213;-69
2022/09/06 00:25:26;;;;;;;1999.90;999.90;;;18.50;99.90;;;;;;5038929;28;20184;-69
2022/09/06 00:27:55;;;;;;;1999.90;999.90;;;18.40;99.90;;;;;;5039050;28;20193;-69
2022/09/06 00:30:22;;;;;;;1999.90;999.90;;;18.40;99.90;;;;;;5038971;28;20207;-69
2022/09/06 00:32:49;;;;;;;1999.90;999.90;;;18.50;99.90;;;;;;5038697;28;20676;-68
2022/09/06 00:35:17;;;;;;;1999.90;999.90;;;18.50;99.90;;;;;;5038415;28;20214;-70
2022/09/06 00:37:44;;;;;;;1999.90;999.90;;;18.50;99.90;;;;;;5038925;28;20225;-69
2022/09/06 00:40:13;;;;;;;1999.90;999.90;;;18.50;99.90;;;;;;5038922;28;20199;-69
2022/09/06 00:42:41;;;;;;;1999.90;999.90;;;18.50;99.90;;;;;;5038761;28;20208;-69
2022/09/06 00:45:10;;;;;;;1999.90;999.90;;;18.50;99.90;;;;;;5038859;28;20195;-69
2022/09/06 00:47:39;;;;;;;1999.90;999.90;;;18.40;99.90;;;;;;5038812;28;20196;-69
2022/09/06 00:50:08;;;;;;;1999.90;999.90;;;18.40;99.90;;;;;;5038844;28;20207;-69
2022/09/06 00:52:37;;;;;;;1999.90;999.90;;;18.40;99.90;;;;;;5038768;28;20215;-69
2022/09/06 00:55:04;;;;;;;1999.90;999.90;;;18.40;99.90;;;;;;5038686;28;20269;-69
2022/09/06 00:57:33;;;;;;;1999.90;999.90;;;18.40;99.90;;;;;;5038746;28;20281;-68
2022/09/06 01:00:02;;;;;;;1999.90;999.90;;;18.50;99.90;;;;;;5038513;28;20212;-68
2022/09/06 01:02:29;;;;;;;1999.90;999.90;;;18.40;99.90;;;;;;5038365;28;20649;-67
2022/09/06 01:04:56;;;;;;;1999.90;999.90;;;18.50;99.90;;;;;;5038260;28;20570;-67
2022/09/06 01:07:35;;;;;;;1999.90;999.90;;;18.40;99.90;;;;;;5038637;28;20250;-68
2022/09/06 01:10:17;;;;;;;1999.90;999.90;;;18.50;99.90;;;;;;5038523;28;20193;-68
2022/09/06 01:12:54;;;;;;;1999.90;999.90;;;18.40;99.90;;;;;;5038238;28;20656;-68
2022/09/06 01:15:32;;;;;;;1999.90;999.90;;;18.40;99.90;;;;;;5038490;28;20208;-68
2022/09/06 01:18:08;;;;;;;1999.90;999.90;;;18.40;99.90;;;;;;5038847;28;20198;-68
2022/09/06 01:20:59;;;;;;;1999.90;999.90;;;18.40;99.90;;;;;;5038660;28;20186;-67
2022/09/06 01:23:55;;;;;;;1999.90;999.90;;;18.50;99.90;;;;;;5025689;28;20215;-68
2022/09/06 01:26:40;;;;;;;1999.90;999.90;;;18.40;99.90;;;;;;5038262;28;20667;-68
2022/09/06 01:29:15;;;;;;;1999.90;999.90;;;18.30;99.90;;;;;;5038216;28;20752;-68
2022/09/06 01:31:46;;;;;;;1999.90;999.90;;;18.40;99.90;;;;;;5036358;28;20195;-68
2022/09/06 01:34:23;;;;;;;1999.90;999.90;;;18.40;99.90;;;;;;5035000;28;20278;-69
2022/09/06 01:36:56;;;;;;;1999.90;999.90;;;18.30;99.90;;;;;;5034880;28;20207;-69
2022/09/06 01:39:26;;;;;;;1999.90;999.90;;;18.30;99.90;;;;;;5035285;28;20676;-69
2022/09/06 01:41:54;;;;;;;1999.90;999.90;;;18.30;99.90;;;;;;5035178;28;20190;-69
2022/09/06 01:44:27;;;;;;;1999.90;999.90;;;18.20;99.90;;;;;;5035118;28;20196;-69
2022/09/06 01:47:00;;;;;;;1999.90;999.90;;;18.10;99.90;;;;;;5035157;28;20191;-69
2022/09/06 01:49:43;;;;;;;1999.90;999.90;;;18.20;99.90;;;;;;5034766;28;20180;-69
2022/09/06 01:52:16;;;;;;;1999.90;999.90;;;18.20;99.90;;;;;;5034762;28;20196;-70
2022/09/06 01:55:08;;;;;;;1999.90;999.90;;;18.20;99.90;;;;;;5034888;28;20187;-69
2022/09/06 01:57:48;;;;;;;1999.90;999.90;;;18.30;99.90;;;;;;5035161;28;20185;-68
2022/09/06 02:00:18;;;;;;;1999.90;999.90;;;18.20;99.90;;;;;;5034592;28;20246;-69
2022/09/06 02:03:04;;;;;;;1999.90;999.90;;;18.30;99.90;;;;;;5035086;28;20196;-67
2022/09/06 02:05:36;;;;;;;1999.90;999.90;;;18.30;99.90;;;;;;5034707;28;20180;-68
2022/09/06 02:08:09;;;;;;;1999.90;999.90;;;18.30;99.90;;;;;;5034771;28;20193;-69
2022/09/06 02:10:40;;;;;;;1999.90;999.90;;;18.30;99.90;;;;;;5034827;28;20184;-69
2022/09/06 02:13:10;;;;;;;1999.90;999.90;;;18.40;99.90;;;;;;5034296;28;20561;-68
2022/09/06 02:15:45;;;;;;;1999.90;999.90;;;18.30;99.90;;;;;;5034154;28;20216;-69
2022/09/06 02:18:14;;;;;;;1999.90;999.90;;;18.20;99.90;;;;;;5034281;28;20674;-69
2022/09/06 02:20:45;;;;;;;1999.90;999.90;;;18.10;99.90;;;;;;5034751;28;20203;-69
2022/09/06 02:23:14;;;;;;;1999.90;999.90;;;18.10;99.90;;;;;;5034613;28;20195;-69
2022/09/06 02:25:45;;;;;;;1999.90;999.90;;;18.10;99.90;;;;;;5034005;28;20193;-69
2022/09/06 02:28:12;;;;;;;1999.90;999.90;;;18.20;99.90;;;;;;5034367;28;20187;-69
2022/09/06 02:30:45;;;;;;;1999.90;999.90;;;18.10;99.90;;;;;;5034469;28;20207;-69
2022/09/06 02:33:17;;;;;;;1999.90;999.90;;;18.10;99.90;;;;;;5034256;28;20184;-68
2022/09/06 02:35:46;;;;;;;1999.90;999.90;;;18.10;99.90;;;;;;5034134;28;20219;-69
2022/09/06 02:38:14;;;;;;;1999.90;999.90;;;18.20;99.90;;;;;;5033903;28;20192;-70
2022/09/06 02:40:42;;;;;;;1999.90;999.90;;;18.10;99.90;;;;;;5034046;28;20218;-70
2022/09/06 02:43:09;;;;;;;1999.90;999.90;;;18.20;99.90;;;;;;5033597;28;20212;-70
2022/09/06 02:45:37;;;;;;;1999.90;999.90;;;18.10;99.90;;;;;;5034001;28;20204;-69
2022/09/06 02:48:05;;;;;;;1999.90;999.90;;;18.00;99.90;;;;;;5033958;28;20207;-69
2022/09/06 02:50:32;;;;;;;1999.90;999.90;;;17.90;99.90;;;;;;5033634;28;20719;-70
2022/09/06 02:53:04;;;;;;;1999.90;999.90;;;18.00;99.90;;;;;;5033618;28;20202;-70
2022/09/06 02:55:31;;;;;;;1999.90;999.90;;;18.00;99.90;;;;;;5033646;28;20196;-70
2022/09/06 02:57:59;;;;;;;1999.90;999.90;;;18.10;99.90;;;;;;5033705;28;20203;-69
2022/09/06 03:00:26;;;;;;;1999.90;999.90;;;18.10;99.90;;;;;;5033598;28;20238;-69
2022/09/06 03:02:54;;;;;;;1999.90;999.90;;;18.10;99.90;;;;;;5033622;28;20206;-67
2022/09/06 03:05:23;;;;;;;1999.90;999.90;;;18.10;99.90;;;;;;5033179;28;20200;-68
2022/09/06 03:07:50;;;;;;;1999.90;999.90;;;18.10;99.90;;;;;;5033531;28;20214;-68
2022/09/06 03:10:17;;;;;;;1999.90;999.90;;;18.10;99.90;;;;;;5033207;28;20196;-69
2022/09/06 03:12:45;;;;;;;1999.90;999.90;;;18.00;99.90;;;;;;5033480;28;20204;-68
2022/09/06 03:15:14;;;;;;;1999.90;999.90;;;18.00;99.90;;;;;;5033163;28;20558;-69
2022/09/06 03:17:42;;;;;;;1999.90;999.90;;;17.90;99.90;;;;;;5033560;28;20215;-68
2022/09/06 03:20:11;;;;;;;1999.90;999.90;;;17.90;99.90;;;;;;5033029;28;20208;-68
2022/09/06 03:22:40;;;;;;;1999.90;999.90;;;17.90;99.90;;;;;;5033328;28;20204;-68
2022/09/06 03:25:09;;;;;;;1999.90;999.90;;;17.80;99.90;;;;;;5033125;28;20203;-68
2022/09/06 03:27:36;;;;;;;1999.90;999.90;;;17.90;99.90;;;;;;5033162;28;20207;-68
2022/09/06 03:30:04;;;;;;;1999.90;999.90;;;17.90;99.90;;;;;;5033196;28;20192;-68
2022/09/06 03:32:31;;;;;;;1999.90;999.90;;;17.80;99.90;;;;;;5033135;28;20202;-67
2022/09/06 03:34:59;;;;;;;1999.90;999.90;;;17.80;99.90;;;;;;5033034;28;20207;-68
2022/09/06 03:37:26;;;;;;;1999.90;999.90;;;17.70;99.90;;;;;;5032643;28;20300;-68
2022/09/06 03:39:54;;;;;;;1999.90;999.90;;;17.60;99.90;;;;;;5033291;28;20206;-68
2022/09/06 03:42:21;;;;;;;1999.90;999.90;;;17.50;99.90;;;;;;5032661;28;20626;-68
2022/09/06 03:44:48;;;;;;;1999.90;999.90;;;17.50;99.90;;;;;;5032974;28;20198;-68
2022/09/06 03:47:15;;;;;;;1999.90;999.90;;;17.60;99.90;;;;;;5032557;28;20215;-68
2022/09/06 03:49:44;;;;;;;1999.90;999.90;;;17.60;99.90;;;;;;5032403;28;20194;-68
2022/09/06 03:52:11;;;;;;;1999.90;999.90;;;17.50;99.90;;;;;;5032520;28;20221;-68
2022/09/06 03:54:38;;;;;;;1999.90;999.90;;;17.60;99.90;;;;;;5032229;28;20218;-68
2022/09/06 03:57:06;;;;;;;1999.90;999.90;;;17.60;99.90;;;;;;5032502;28;20223;-68
2022/09/06 03:59:34;;;;;;;1999.90;999.90;;;17.60;99.90;;;;;;5032493;28;20570;-68
2022/09/06 04:02:01;;;;;;;1999.90;999.90;;;17.60;99.90;;;;;;5032218;28;20239;-67
2022/09/06 04:04:28;;;;;;;1999.90;999.90;;;17.60;99.90;;;;;;5032604;28;20206;-67
2022/09/06 04:06:55;;;;;;;1999.90;999.90;;;17.60;99.90;;;;;;5032688;28;20194;-67
2022/09/06 04:09:22;;;;;;;1999.90;999.90;;;17.50;99.90;;;;;;5032616;28;20256;-68
2022/09/06 04:11:49;;;;;;;1999.90;999.90;;;17.40;99.90;;;;;;5032550;28;20252;-68
2022/09/06 04:14:18;;;;;;;1999.90;999.90;;;17.30;99.90;;;;;;5032183;28;20202;-68
2022/09/06 04:16:45;;;;;;;1999.90;999.90;;;17.20;99.90;;;;;;5032615;28;20214;-68
2022/09/06 04:19:12;;;;;;;1999.90;999.90;;;17.20;99.90;;;;;;5032562;28;20203;-67
2022/09/06 04:21:39;;;;;;;1999.90;999.90;;;17.10;99.90;;;;;;5032457;28;20194;-67
2022/09/06 04:24:06;;;;;;;1999.90;999.90;;;17.10;99.90;;;;;;5032121;28;20607;-68
2022/09/06 04:26:34;;;;;;;1999.90;999.90;;;16.90;99.90;;;;;;5032482;28;20196;-68
2022/09/06 04:29:01;;;;;;;1999.90;999.90;;;16.70;99.90;;;;;;5032465;28;20208;-68
2022/09/06 04:31:29;;;;;;;1999.90;999.90;;;16.50;99.90;;;;;;5032041;28;20213;-67
2022/09/06 04:33:56;;;;;;;1999.90;999.90;;;16.40;99.90;;;;;;5032299;28;20194;-67
2022/09/06 04:36:23;;;;;;;1999.90;999.90;;;16.60;99.90;;;;;;5031956;28;20708;-68
2022/09/06 04:38:50;;;;;;;1999.90;999.90;;;16.90;99.90;;;;;;5032034;28;20198;-68
2022/09/06 04:41:18;;;;;;;1999.90;999.90;;;17.20;99.90;;;;;;5023155;28;20194;-67
2022/09/06 04:43:45;;;;;;;1999.90;999.90;;;17.30;99.90;;;;;;5022408;28;20200;-67
2022/09/06 04:46:20;;;;;;;1999.90;999.90;;;17.40;99.90;;;;;;5021756;28;20562;-67
2022/09/06 04:48:49;;;;;;;1999.90;999.90;;;17.40;99.90;;;;;;5020581;28;20197;-68
2022/09/06 04:51:16;;;;;;;1999.90;999.90;;;17.50;99.90;;;;;;5023240;28;20747;-69
2022/09/06 04:53:43;;;;;;;1999.90;999.90;;;17.50;99.90;;;;;;5020820;28;20194;-69
2022/09/06 04:56:14;;;;;;;1999.90;999.90;;;17.40;99.90;;;;;;5021107;28;20196;-69
2022/09/06 04:58:42;;;;;;;1999.90;999.90;;;17.30;99.90;;;;;;5022788;28;20202;-68
2022/09/06 05:01:09;;;;;;;1999.90;999.90;;;17.10;99.90;;;;;;5024843;28;20234;-67
2022/09/06 05:03:36;;;;;;;1999.90;999.90;;;17.10;99.90;;;;;;5032181;28;20218;-67
2022/09/06 05:06:09;;;;;;;1999.90;999.90;;;17.10;99.90;;;;;;5031951;28;20197;-68
2022/09/06 05:08:38;;;;;;;1999.90;999.90;;;17.10;99.90;;;;;;5034968;28;20224;-68
2022/09/06 05:11:06;;;;;;;1999.90;999.90;;;17.20;99.90;;;;;;5035830;28;20226;-68
2022/09/06 05:13:33;;;;;;;1999.90;999.90;;;17.30;99.90;;;;;;5035826;28;20203;-68
2022/09/06 05:16:01;;;;;;;1999.90;999.90;;;17.30;99.90;;;;;;5035766;28;20192;-68
2022/09/06 05:18:29;;;;;;;1999.90;999.90;;;17.40;99.90;;;;;;5035772;28;20231;-68
2022/09/06 05:20:56;;;;;;;1999.90;999.90;;;17.30;99.90;;;;;;5035384;28;20205;-67
2022/09/06 05:23:25;;;;;;;1999.90;999.90;;;17.30;99.90;;;;;;5035388;28;20665;-67
2022/09/06 05:25:53;;;;;;;1999.90;999.90;;;17.30;99.90;;;;;;5035180;28;20572;-68
2022/09/06 05:28:20;;;;;;;1999.90;999.90;;;17.30;99.90;;;;;;5035536;28;20199;-69
2022/09/06 05:30:47;;;;;;;1999.90;999.90;;;17.30;99.90;;;;;;5035459;28;20204;-69
2022/09/06 05:33:20;;;;;;;1999.90;999.90;;;17.30;99.90;;;;;;5035461;28;20197;-69
2022/09/06 05:35:47;;;;;;;1999.90;999.90;;;17.30;99.90;;;;;;5035295;28;20212;-69
2022/09/06 05:38:14;;;;;;;1999.90;999.90;;;17.20;99.90;;;;;;5034986;28;20214;-67
2022/09/06 05:40:42;;;;;;;1999.90;999.90;;;17.40;99.90;;;;;;5035048;28;20248;-68
2022/09/06 05:43:09;;;;;;;1999.90;999.90;;;17.50;99.90;;;;;;5034907;28;20207;-70
2022/09/06 05:45:37;;;;;;;1999.90;999.90;;;17.60;99.90;;;;;;5034737;28;20203;-69
2022/09/06 05:48:04;;;;;;;1999.90;999.90;;;17.60;99.90;;;;;;5035101;28;20313;-71
2022/09/06 05:50:31;;;;;;;1999.90;999.90;;;17.70;99.90;;;;;;5034693;28;20205;-70
2022/09/06 05:52:58;;;;;;;1999.90;999.90;;;17.80;99.90;;;;;;5034827;28;20567;-71
2022/09/06 05:55:25;;;;;;;1999.90;999.90;;;17.90;99.90;;;;;;5034602;28;20213;-72
2022/09/06 05:57:54;;;;;;;1999.90;999.90;;;18.00;99.90;;;;;;5034167;28;20222;-71
2022/09/06 06:00:21;;;;;;;1999.90;999.90;;;18.00;99.90;;;;;;5034455;28;20245;-71
2022/09/06 06:02:50;;;;;;;1999.90;999.90;;;18.00;99.90;;;;;;5034190;28;20196;-70
2022/09/06 06:05:17;;;;;;;1999.90;999.90;;;18.10;99.90;;;;;;5034038;28;20754;-70
2022/09/06 06:07:44;;;;;;;1999.90;999.90;;;18.20;99.90;;;;;;5034751;28;20195;-70
2022/09/06 06:10:11;;;;;;;1999.90;999.90;;;18.30;99.90;;;;;;5034428;28;20204;-70
2022/09/06 06:12:38;;;;;;;1999.90;999.90;;;18.50;99.90;;;;;;5033600;28;20205;-71
2022/09/06 06:15:07;;;;;;;1999.90;999.90;;;18.60;99.90;;;;;;5033522;28;20207;-70
2022/09/06 06:17:34;;;;;;;1999.90;999.90;;;18.70;99.90;;;;;;5033258;28;20219;-73
2022/09/06 06:20:02;;;;;;;1999.90;999.90;;;18.80;99.90;;;;;;5034163;28;20200;-73
2022/09/06 06:22:29;;;;;;;1999.90;999.90;;;18.90;99.90;;;;;;5026047;28;20189;-72
2022/09/06 06:24:56;;;;;;;1999.90;999.90;;;19.10;99.90;;;;;;5023398;28;20234;-72
2022/09/06 06:27:23;;;;;;;1999.90;999.90;;;19.30;99.90;;;;;;5023355;28;20184;-72
2022/09/06 06:29:51;;;;;;;1999.90;999.90;;;19.70;99.90;;;;;;5018843;28;20207;-72
2022/09/06 06:32:19;;;;;;;1999.90;999.90;;;20.20;99.90;;;;;;5018643;28;20738;-72
2022/09/06 06:34:47;;;;;;;1999.90;999.90;;;20.80;99.90;;;;;;5024304;28;20193;-72
2022/09/06 06:37:14;;;;;;;1999.90;999.90;;;21.30;99.90;;;;;;5023270;28;20242;-72
2022/09/06 06:39:41;;;;;;;1999.90;999.90;;;21.90;99.90;;;;;;5023900;28;20197;-72
2022/09/06 06:42:08;;;;;;;1999.90;999.90;;;22.20;99.90;;;;;;5022708;28;20199;-71
2022/09/06 06:44:35;;;;;;;1999.90;999.90;;;22.30;99.90;;;;;;5023840;28;20249;-71
2022/09/06 06:47:02;;;;;;;1999.90;999.90;;;22.40;99.90;;;;;;5021612;28;20197;-70
2022/09/06 06:49:30;;;;;;;1999.90;999.90;;;22.40;99.90;;;;;;5017192;28;20197;-69
2022/09/06 06:51:57;;;;;;;1999.90;999.90;;;22.70;99.90;;;;;;5018610;28;20192;-69
2022/09/06 06:54:24;;;;;;;1999.90;999.90;;;22.80;99.90;;;;;;5022937;28;20207;-70
2022/09/06 06:56:52;;;;;;;1999.90;999.90;;;23.00;99.90;;;;;;5033675;28;20203;-66
2022/09/06 06:59:20;;;;;;;1999.90;999.90;;;23.10;99.90;;;;;;5033075;28;20253;-66
2022/09/06 07:01:49;;;;;;;1999.90;999.90;;;23.50;99.90;;;;;;5032431;28;20240;-67
2022/09/06 07:04:16;;;;;;;1999.90;999.90;;;23.70;99.90;;;;;;5033505;28;20196;-66
2022/09/06 07:06:49;;;;;;;1999.90;999.90;;;23.90;99.90;;;;;;5032552;28;20269;-68
2022/09/06 07:09:18;;;;;;;1999.90;999.90;;;24.00;99.90;;;;;;5033238;28;20691;-69
2022/09/06 07:11:45;;;;;;;1999.90;999.90;;;23.90;99.90;;;;;;5033174;28;20211;-68
2022/09/06 07:14:12;;;;;;;1999.90;999.90;;;24.20;99.90;;;;;;5033172;28;20200;-68
2022/09/06 07:16:39;;;;;;;1999.90;999.90;;;24.10;99.90;;;;;;5032970;28;20257;-68
2022/09/06 07:19:06;;;;;;;1999.90;999.90;;;24.20;99.90;;;;;;5032742;28;20216;-67
2022/09/06 07:21:33;;;;;;;1999.90;999.90;;;24.40;99.90;;;;;;5033307;28;20197;-71
2022/09/06 07:24:02;;;;;;;1999.90;999.90;;;24.10;99.90;;;;;;5033206;28;20208;-74
2022/09/06 07:26:30;;;;;;;1999.90;999.90;;;24.30;99.90;;;;;;5032363;28;20207;-70
2022/09/06 07:28:59;;;;;;;1999.90;999.90;;;24.50;99.90;;;;;;5032195;28;20210;-69
2022/09/06 07:31:27;;;;;;;1999.90;999.90;;;24.80;99.90;;;;;;5032637;28;20197;-69
2022/09/06 07:33:54;;;;;;;1999.90;999.90;;;25.00;99.90;;;;;;5032668;28;20210;-67
2022/09/06 07:36:21;;;;;;;1999.90;999.90;;;25.20;99.90;;;;;;5032926;28;20200;-68
2022/09/06 07:38:49;;;;;;;1999.90;999.90;;;25.10;99.90;;;;;;5032642;28;20216;-67
2022/09/06 07:41:19;;;;;;;1999.90;999.90;;;25.00;99.90;;;;;;5032645;28;20587;-67
2022/09/06 07:43:46;;;;;;;1999.90;999.90;;;25.00;99.90;;;;;;5029334;28;20690;-67
2022/09/06 07:46:15;;;;;;;1999.90;999.90;;;25.40;99.90;;;;;;5023792;28;20200;-67
2022/09/06 07:48:44;;;;;;;1999.90;999.90;;;25.40;99.90;;;;;;5032465;28;20200;-67
2022/09/06 07:51:12;;;;;;;1999.90;999.90;;;25.80;99.90;;;;;;5023755;28;20653;-68
2022/09/06 07:53:41;;;;;;;1999.90;999.90;;;26.20;99.90;;;;;;5029310;28;20196;-69
2022/09/06 07:56:10;;;;;;;1999.90;999.90;;;26.20;99.90;;;;;;5032359;28;20198;-70
2022/09/06 07:58:39;;;;;;;1999.90;999.90;;;26.30;99.90;;;;;;5031960;28;20218;-69
2022/09/06 08:01:32;;;;;;;1999.90;999.90;;;26.10;99.90;;;;;;5032051;28;20242;-70
2022/09/06 08:04:01;;;;;;;1999.90;999.90;;;26.10;99.90;;;;;;5017643;28;20203;-69
2022/09/06 08:06:30;;;;;;;1999.90;999.90;;;26.30;99.90;;;;;;5032001;28;20273;-69
2022/09/06 08:08:59;;;;;;;1999.90;999.90;;;26.50;99.90;;;;;;5032006;28;20673;-70
2022/09/06 08:11:28;;;;;;;1999.90;999.90;;;26.40;74.50;;;;;;5031688;28;20658;-71
2022/09/06 08:13:59;;;;;;;1999.90;999.90;;;26.50;52.00;;;;;;5032145;28;20197;-69
2022/09/06 08:16:27;;;;;;;1999.90;999.90;;;26.30;29.90;;;;;;5032538;28;20176;-68
2022/09/06 08:18:56;;;;;;;1999.90;999.90;;;26.30;28.40;;;;;;5014698;28;20204;-70
2022/09/06 08:21:25;;;;;;;1999.90;999.90;;;25.90;7.80;;;;;;5012444;28;20701;-70
2022/09/06 08:23:54;;;;;;;1999.90;999.90;;;26.10;1.00;;;;;;5012308;28;20214;-69
2022/09/06 08:26:22;;;;;;;1999.90;999.90;;;26.10;1.00;;;;;;5012676;28;20193;-69
2022/09/06 08:28:53;;;;;;;1999.90;999.90;;;26.40;1.00;;;;;;5012709;28;20200;-69
2022/09/06 08:31:22;;;;;;;1999.90;999.90;;;26.30;1.00;;;;;;5012000;28;20181;-69
2022/09/06 08:33:49;;;;;;;1999.90;999.90;;;26.40;1.00;;;;;;5011904;28;20201;-69
2022/09/06 08:36:16;;;;;;;1999.90;999.90;;;26.40;1.00;;;;;;5012276;28;20678;-69
2022/09/06 08:38:44;;;;;;;1999.90;999.90;;;26.50;1.00;;;;;;5012172;28;20229;-69
2022/09/06 08:41:23;;;;;;;1999.90;999.90;;;26.90;1.00;;;;;;5013870;28;20200;-68
2022/09/06 08:43:53;;;;;;;1999.90;999.90;;;27.20;1.00;;;;;;5016750;28;20185;-69
2022/09/06 08:46:26;;;;;;;1999.90;999.90;;;26.90;1.00;;;;;;5016418;28;20185;-69
2022/09/06 08:48:55;;;;;;;1999.90;999.90;;;27.20;1.00;;;;;;5016405;28;20191;-69
2022/09/06 08:51:51;;;;;;;1999.90;999.90;;;27.40;1.00;;;;;;5016022;28;20254;-69
2022/09/06 08:54:26;;;;;;;1999.90;999.90;;;27.50;1.00;;;;;;4990547;28;20204;-68
2022/09/06 08:57:03;;;;;;;1999.90;999.90;;;27.20;1.00;;;;;;5016386;28;20195;-68
2022/09/06 08:59:37;;;;;;;1999.90;999.90;;;27.40;1.00;;;;;;5016183;28;20205;-69
2022/09/06 09:02:12;;;;;;;1999.90;999.90;;;27.50;1.00;;;;;;5016044;28;20233;-67
2022/09/06 09:04:43;;;;;;;1999.90;999.90;;;27.60;1.00;;;;;;5016084;28;20185;-68
2022/09/06 09:07:34;;;;;;;1999.90;999.90;;;27.80;1.00;;;;;;5016131;28;20231;-70
2022/09/06 09:10:06;;;;;;;1999.90;999.90;;;27.90;1.00;;;;;;5013381;28;20203;-69
2022/09/06 09:12:41;;;;;;;1999.90;999.90;;;28.10;1.00;;;;;;5016040;28;20185;-70
2022/09/06 09:15:12;;;;;;;1999.90;999.90;;;28.20;1.00;;;;;;5015749;28;20185;-69
2022/09/06 09:17:41;;;;;;;1999.90;999.90;;;28.40;1.00;;;;;;5015809;28;20201;-69
2022/09/06 09:20:09;;;;;;;1999.90;999.90;;;28.30;1.00;;;;;;5015858;28;20207;-69
2022/09/06 09:22:38;;;;;;;1999.90;999.90;;;28.60;1.00;;;;;;5015566;28;20246;-69
2022/09/06 09:25:08;;;;;;;1999.90;999.90;;;29.00;1.00;;;;;;5015556;28;20561;-70
2022/09/06 09:27:36;;;;;;;1999.90;999.90;;;29.20;1.00;;;;;;5015774;28;20191;-70
2022/09/06 09:30:07;;;;;;;1999.90;999.90;;;29.30;1.00;;;;;;5015386;28;20267;-69
2022/09/06 09:32:36;;;;;;;1999.90;999.90;;;28.80;1.00;;;;;;5018848;28;20197;-68
2022/09/06 09:35:20;;;;;;;1999.90;999.90;;;29.10;1.00;;;;;;5034645;28;20212;-72
2022/09/06 09:37:49;;;;;;;1999.90;999.90;;;29.40;1.00;;;;;;5034551;28;20187;-70
2022/09/06 09:40:27;;;;;;;1999.90;999.90;;;29.40;1.00;;;;;;5033800;28;20196;-70
2022/09/06 09:43:08;;;;;;;1999.90;999.90;;;29.40;1.00;;;;;;5026137;28;20195;-70
2022/09/06 09:45:35;;;;;;;1999.90;999.90;;;29.40;1.00;;;;;;5033684;28;20180;-70
2022/09/06 09:48:19;;;;;;;1999.90;999.90;;;29.30;1.00;;;;;;5033202;28;20201;-71
2022/09/06 09:50:48;;;;;;;1999.90;999.90;;;29.80;1.00;;;;;;5034392;28;20177;-71
2022/09/06 09:53:17;;;;;;;1999.90;999.90;;;29.40;1.00;;;;;;5034119;28;20204;-70
2022/09/06 09:55:45;;;;;;;1999.90;999.90;;;29.40;1.00;;;;;;5034633;28;20677;-71
2022/09/06 09:58:24;;;;;;;1999.90;999.90;;;29.20;1.00;;;;;;5033114;28;20634;-69
2022/09/06 10:01:10;;;;;;;1999.90;999.90;;;29.20;1.00;;;;;;5033508;28;20186;-69
2022/09/06 10:03:37;;;;;;;1999.90;999.90;;;29.60;1.00;;;;;;5034043;28;20240;-69
2022/09/06 10:06:10;;;;;;;1999.90;999.90;;;29.60;1.00;;;;;;5033899;28;20210;-69
2022/09/06 10:08:41;;;;;;;1999.90;999.90;;;29.70;1.00;;;;;;5034442;28;20180;-70
2022/09/06 10:11:12;;;;;;;1999.90;999.90;;;29.50;1.00;;;;;;5034475;28;20176;-69
2022/09/06 10:13:41;;;;;;;1999.90;999.90;;;29.60;1.00;;;;;;5034550;28;20189;-69
2022/09/06 10:16:08;;;;;;;1999.90;999.90;;;29.10;1.00;;;;;;5034250;28;20203;-69
2022/09/06 10:18:37;;;;;;;1999.90;999.90;;;29.30;1.00;;;;;;5033114;28;20208;-69
2022/09/06 10:21:08;;;;;;;1999.90;999.90;;;29.60;1.00;;;;;;5033771;28;20196;-69
2022/09/06 10:24:01;;;;;;;1999.90;999.90;;;29.70;1.00;;;;;;5033464;28;20184;-69
2022/09/06 10:26:35;;;;;;;1999.90;999.90;;;29.70;1.00;;;;;;5033405;28;20668;-69
2022/09/06 10:29:05;;;;;;;1999.90;999.90;;;29.60;1.00;;;;;;5033369;28;20175;-68
2022/09/06 10:32:02;;;;;;;1999.90;999.90;;;29.60;1.00;;;;;;5034315;28;20196;-68
2022/09/06 10:34:59;;;;;;;1999.90;999.90;;;29.90;1.00;;;;;;5032332;28;20180;-67
2022/09/06 10:37:44;;;;;;;1999.90;999.90;;;29.60;1.00;;;;;;5033364;28;20253;-71
2022/09/06 10:40:16;;;;;;;1999.90;999.90;;;29.50;1.00;;;;;;5034089;28;20203;-67
2022/09/06 10:42:47;;;;;;;1999.90;999.90;;;30.00;1.00;;;;;;5033417;28;20192;-68
2022/09/06 10:45:28;;;;;;;1999.90;999.90;;;30.10;1.00;;;;;;5033618;28;20199;-66
2022/09/06 10:48:00;;;;;;;1999.90;999.90;;;30.00;1.00;;;;;;5033777;28;20199;-67
2022/09/06 10:50:41;;;;;;;1999.90;999.90;;;30.50;1.00;;;;;;5033554;28;20183;-67
2022/09/06 10:53:16;;;;;;;1999.90;999.90;;;30.70;1.00;;;;;;5033221;28;20184;-68
2022/09/06 10:55:48;;;;;;;1999.90;999.90;;;31.00;1.00;;;;;;5032702;28;20194;-68
2022/09/06 10:58:23;;;;;;;1999.90;999.90;;;30.80;1.00;;;;;;5033441;28;20695;-66
2022/09/06 11:00:52;;;;;;;1999.90;999.90;;;30.30;1.00;;;;;;5033448;28;20186;-68
2022/09/06 11:03:26;;;;;;;1999.90;999.90;;;30.70;1.00;;;;;;5030979;28;20231;-68
2022/09/06 11:05:58;;;;;;;1999.90;999.90;;;30.80;1.00;;;;;;5032599;28;20539;-68
2022/09/06 11:08:35;;;;;;;1999.90;999.90;;;30.60;1.00;;;;;;5033858;28;20203;-68
2022/09/06 11:11:08;;;;;;;1999.90;999.90;;;30.60;1.00;;;;;;5033291;28;20187;-67
2022/09/06 11:13:35;;;;;;;1999.90;999.90;;;30.70;1.00;;;;;;5033165;28;20193;-69
2022/09/06 11:16:08;;;;;;;1999.90;999.90;;;30.90;1.00;;;;;;5033138;28;20691;-67
2022/09/06 11:18:41;;;;;;;1999.90;999.90;;;31.10;1.00;;;;;;5033294;28;20254;-65
2022/09/06 11:21:53;;;;;;;1999.90;999.90;;;31.00;1.00;;;;;;5033361;28;20188;-66
2022/09/06 11:24:34;;;;;;;1999.90;999.90;;;30.90;1.00;;;;;;5032899;28;20589;-66
2022/09/06 11:27:06;;;;;;;1999.90;999.90;;;31.20;1.00;;;;;;5033296;28;20184;-66
2022/09/06 11:29:34;;;;;;;1999.90;999.90;;;31.20;1.00;;;;;;5033232;28;20183;-66
2022/09/06 11:32:03;;;;;;;1999.90;999.90;;;31.50;1.00;;;;;;5033201;28;20202;-67
2022/09/06 11:34:33;;;;;;;1999.90;999.90;;;31.20;1.00;;;;;;5032963;28;20215;-67
2022/09/06 11:37:02;;;;;;;1999.90;999.90;;;31.00;1.00;;;;;;5032712;28;20200;-68
2022/09/06 11:39:33;;;;;;;1999.90;999.90;;;31.20;1.00;;;;;;5032955;28;20226;-66
2022/09/06 11:42:01;;;;;;;1999.90;999.90;;;30.90;1.00;;;;;;5033012;28;20189;-66
2022/09/06 11:44:52;;;;;;;1999.90;999.90;;;31.10;1.00;;;;;;5032625;28;20687;-66
2022/09/06 11:47:40;;;;;;;1999.90;999.90;;;31.70;1.00;;;;;;5033131;28;20200;-68
2022/09/06 11:50:26;;;;;;;1999.90;999.90;;;31.70;1.00;;;;;;5032544;28;20207;-68
2022/09/06 11:53:11;;;;;;;1999.90;999.90;;;31.80;1.00;;;;;;5032283;28;20188;-69
2022/09/06 11:55:43;;;;;;;1999.90;999.90;;;31.90;1.00;;;;;;5032644;28;20180;-69
2022/09/06 11:58:20;;;;;;;1999.90;999.90;;;32.00;1.00;;;;;;5032351;28;20181;-68
2022/09/06 12:01:26;;;;;;;1999.90;999.90;;;32.00;1.00;;;;;;5031964;28;20203;-68
2022/09/06 12:04:06;;;;;;;1999.90;999.90;;;32.80;1.00;;;;;;5032001;28;20244;-67
2022/09/06 12:06:37;;;;;;;1999.90;999.90;;;32.30;1.00;;;;;;5032445;28;20549;-68
2022/09/06 12:09:30;;;;;;;1999.90;999.90;;;32.30;1.00;;;;;;5032543;28;20214;-69
2022/09/06 12:12:00;;;;;;;1999.90;999.90;;;32.40;1.00;;;;;;5032545;28;20680;-68
2022/09/06 12:14:38;;;;;;;1999.90;999.90;;;33.20;1.00;;;;;;5032462;28;20606;-69
2022/09/06 12:17:29;;;;;;;1999.90;999.90;;;33.40;1.00;;;;;;5032061;28;20191;-68
2022/09/06 12:20:04;;;;;;;1999.90;999.90;;;33.80;1.00;;;;;;5032389;28;20204;-67